Thiensville, Wisconsin
Current Conditions -  °F | °C
As of 8:45 AM on Monday 24 Nov 2014 (Local Time) from KMWC Reporting Station
Overcast Overcast  
Wind Chill: 36°   Ceiling: 800
Heat Index: 43°   Visibility: 10mi
Dew Point: 39°   Wind: 14mph
Humidity: 87%   Direction: 280°W
Pressure: 29.08"   Gusts: NA
Location:  43.24°N, 87.98°W
Report Text: KMWC 241445Z AUTO 28012KT 10SM OVC008 06/04 A2908
Loading
Personal Weather Stations






























Interactive Weather Map New forecast layout! Learn more

10-Day Weather Forecast

Advertisements
Track Severe Weather on mobile